Time;durP1;ratioP1;P1;durP2;ratioP2;P2;SDS_P1;SDS_P2;PMS_P1;PMS_P2;Temp;Humidity;BMP_temperature;BMP_pressure;BME280_temperature;BME280_humidity;BME280_pressure;Samples;Min_cycle;Max_cycle;Signal;HPM_P1;HPM_P2
2021/12/15 00:01:40;;;;;;;77.93;32.28;;;9.20;99.90;;;;;;4945911;29;20051;-48
2021/12/15 00:04:06;;;;;;;62.58;30.13;;;9.20;99.90;;;;;;4926407;29;20051;-47
2021/12/15 00:06:32;;;;;;;71.22;31.85;;;9.20;99.90;;;;;;4944194;29;20077;-48
2021/12/15 00:08:59;;;;;;;76.30;31.48;;;9.30;99.90;;;;;;4926862;29;20051;-47
2021/12/15 00:11:32;;;;;;;68.00;31.20;;;9.30;99.90;;;;;;4944766;29;20051;-47
2021/12/15 00:14:00;;;;;;;68.85;32.60;;;9.30;99.90;;;;;;4909766;29;20383;-49
2021/12/15 00:16:27;;;;;;;63.25;30.92;;;9.30;99.90;;;;;;4925448;29;20059;-47
2021/12/15 00:18:53;;;;;;;64.38;30.75;;;9.30;99.90;;;;;;4920268;29;20055;-47
2021/12/15 00:21:20;;;;;;;71.78;31.55;;;9.20;99.90;;;;;;4945268;29;20134;-47
2021/12/15 00:23:48;;;;;;;61.38;31.30;;;9.30;99.90;;;;;;4926333;29;20047;-47
2021/12/15 00:26:15;;;;;;;70.43;32.90;;;9.30;99.90;;;;;;4929608;29;20399;-47
2021/12/15 00:28:42;;;;;;;67.60;33.00;;;9.30;99.90;;;;;;4926758;29;20458;-47
2021/12/15 00:31:08;;;;;;;69.90;32.83;;;9.30;99.90;;;;;;4943541;29;20055;-47
2021/12/15 00:33:36;;;;;;;75.22;35.58;;;9.30;99.90;;;;;;4926708;28;20047;-47
2021/12/15 00:36:03;;;;;;;70.88;32.95;;;9.30;99.90;;;;;;4925319;29;20502;-49
2021/12/15 00:38:28;;;;;;;76.28;33.90;;;9.30;99.90;;;;;;4926977;29;20395;-49
2021/12/15 00:40:54;;;;;;;72.35;35.63;;;9.30;99.90;;;;;;4927347;29;20500;-47
2021/12/15 00:43:21;;;;;;;72.60;34.17;;;9.30;99.90;;;;;;4929936;29;20051;-50
2021/12/15 00:45:47;;;;;;;70.30;35.05;;;9.30;99.90;;;;;;4945643;29;20267;-49
2021/12/15 00:48:14;;;;;;;71.93;34.78;;;9.30;99.90;;;;;;4927273;29;20387;-59
2021/12/15 00:50:42;;;;;;;75.93;34.95;;;9.40;99.90;;;;;;4942999;29;20480;-51
2021/12/15 00:53:08;;;;;;;71.43;34.30;;;9.30;99.90;;;;;;4943850;29;20516;-48
2021/12/15 00:55:35;;;;;;;77.78;37.03;;;9.40;99.90;;;;;;4942785;28;20058;-47
2021/12/15 00:58:03;;;;;;;69.25;35.25;;;9.40;99.90;;;;;;4945002;28;20100;-48
2021/12/15 01:00:37;;;;;;;70.88;35.10;;;9.40;99.90;;;;;;4925908;28;20057;-48
2021/12/15 01:03:04;;;;;;;70.07;35.85;;;9.40;99.90;;;;;;4926674;28;20405;-48
2021/12/15 01:05:35;;;;;;;74.53;35.47;;;9.40;99.90;;;;;;4925377;28;20058;-48
2021/12/15 01:08:05;;;;;;;65.45;34.80;;;9.50;99.90;;;;;;4942595;28;20500;-47
2021/12/15 01:10:46;;;;;;;72.65;37.03;;;9.40;99.90;;;;;;4942404;28;20129;-48
2021/12/15 01:21:25;;;;;;;76.90;36.30;;;9.40;99.90;;;;;;4943212;29;20055;-46
2021/12/15 01:23:51;;;;;;;75.20;37.17;;;9.40;99.90;;;;;;4943483;29;20058;-48
2021/12/15 01:26:17;;;;;;;83.25;39.60;;;9.50;99.90;;;;;;4942091;29;20058;-47
2021/12/15 01:28:43;;;;;;;81.40;38.42;;;9.40;99.90;;;;;;4942809;29;20055;-48
2021/12/15 01:31:10;;;;;;;86.32;40.83;;;9.50;99.90;;;;;;4943673;29;20350;-46
2021/12/15 01:33:37;;;;;;;75.35;38.05;;;9.40;99.90;;;;;;4945021;28;20448;-47
2021/12/15 01:36:06;;;;;;;81.18;39.05;;;9.50;99.90;;;;;;4928023;29;20498;-48
2021/12/15 01:38:34;;;;;;;78.43;38.55;;;9.50;99.90;;;;;;4925738;29;20143;-48
2021/12/15 01:41:02;;;;;;;74.20;36.45;;;9.50;99.90;;;;;;4943122;29;20051;-47
2021/12/15 01:43:50;;;;;;;74.95;38.10;;;9.50;99.90;;;;;;4925880;29;20059;-46
2021/12/15 01:49:13;;;;;;;81.07;38.22;;;9.40;99.90;;;;;;4924909;29;20063;-47
2021/12/15 01:51:39;;;;;;;80.97;38.15;;;9.50;99.90;;;;;;4943531;29;20051;-47
2021/12/15 01:54:06;;;;;;;76.38;38.67;;;9.50;99.90;;;;;;4946595;28;20133;-47
2021/12/15 01:56:33;;;;;;;82.43;38.25;;;9.40;99.90;;;;;;4949185;29;20157;-50
2021/12/15 01:58:58;;;;;;;83.25;41.17;;;9.40;99.90;;;;;;4951050;29;20106;-48
2021/12/15 02:01:25;;;;;;;86.53;40.92;;;9.50;99.90;;;;;;4948456;29;20050;-52
2021/12/15 02:03:51;;;;;;;73.95;37.65;;;9.50;99.90;;;;;;4933214;29;20055;-50
2021/12/15 02:06:17;;;;;;;84.63;41.28;;;9.50;99.90;;;;;;4947298;29;20083;-48
2021/12/15 02:08:44;;;;;;;82.47;39.30;;;9.50;99.90;;;;;;4929856;28;20055;-46
2021/12/15 02:11:10;;;;;;;87.90;42.45;;;9.40;99.90;;;;;;4928808;29;20055;-47
2021/12/15 02:13:36;;;;;;;80.57;40.03;;;9.50;99.90;;;;;;4946746;28;20061;-47
2021/12/15 02:16:08;;;;;;;85.25;41.65;;;9.50;99.90;;;;;;4946769;28;20046;-48
2021/12/15 02:18:41;;;;;;;80.17;40.87;;;9.50;99.90;;;;;;4938171;29;20061;-48
2021/12/15 02:21:19;;;;;;;82.85;40.60;;;9.50;99.90;;;;;;4942631;29;20299;-47
2021/12/15 02:23:51;;;;;;;78.97;39.58;;;9.50;99.90;;;;;;4945099;29;20047;-46
2021/12/15 02:26:33;;;;;;;77.35;41.70;;;9.50;99.90;;;;;;4944692;29;20477;-48
2021/12/15 02:29:01;;;;;;;78.45;40.50;;;9.50;99.90;;;;;;4913568;29;20191;-47
2021/12/15 02:31:41;;;;;;;84.22;42.20;;;9.50;99.90;;;;;;4945729;28;20769;-48
2021/12/15 02:37:20;;;;;;;75.93;40.97;;;9.40;99.90;;;;;;4945973;28;20051;-47
2021/12/15 02:40:04;;;;;;;85.90;41.17;;;9.40;99.90;;;;;;4942969;28;20518;-48
2021/12/15 02:42:35;;;;;;;81.72;42.38;;;9.40;99.90;;;;;;4942783;28;20178;-46
2021/12/15 02:45:00;;;;;;;80.60;40.50;;;9.40;99.90;;;;;;4937876;28;20050;-48
2021/12/15 02:47:29;;;;;;;76.85;41.92;;;9.40;99.90;;;;;;4926662;29;20060;-46
2021/12/15 02:49:56;;;;;;;77.03;41.20;;;9.50;99.90;;;;;;4947921;28;20073;-46
2021/12/15 02:52:22;;;;;;;80.68;40.55;;;9.50;99.90;;;;;;4946016;28;20043;-47
2021/12/15 02:54:48;;;;;;;83.07;41.08;;;9.40;99.90;;;;;;4940144;28;20137;-49
2021/12/15 02:57:16;;;;;;;75.35;41.10;;;9.40;99.90;;;;;;4932686;29;20063;-47
2021/12/15 03:00:06;;;;;;;79.30;42.13;;;9.50;99.90;;;;;;4921929;29;20059;-46
2021/12/15 03:05:14;;;;;;;76.15;42.30;;;9.40;99.90;;;;;;4945316;28;20059;-46
2021/12/15 03:07:49;;;;;;;72.80;40.20;;;9.50;99.90;;;;;;4944895;28;20062;-47
2021/12/15 03:15:47;;;;;;;77.40;40.83;;;9.40;99.90;;;;;;4946378;28;20082;-47
2021/12/15 03:18:16;;;;;;;73.13;38.97;;;9.40;99.90;;;;;;4921244;29;20138;-50
2021/12/15 03:20:52;;;;;;;74.07;40.17;;;9.40;99.90;;;;;;4945202;29;20413;-48
2021/12/15 03:23:27;;;;;;;78.70;38.80;;;9.40;99.90;;;;;;4941905;29;20046;-47
2021/12/15 03:25:54;;;;;;;76.90;40.83;;;9.40;99.90;;;;;;4914499;29;20078;-48
2021/12/15 03:36:25;;;;;;;80.55;40.75;;;9.40;99.90;;;;;;4945030;28;20150;-46
2021/12/15 03:38:51;;;;;;;74.53;38.97;;;9.40;99.90;;;;;;4927069;29;20098;-49
2021/12/15 03:41:18;;;;;;;82.45;41.75;;;9.40;99.90;;;;;;4945769;29;20047;-47
2021/12/15 03:43:44;;;;;;;86.00;41.75;;;9.40;99.90;;;;;;4944508;29;20143;-51
2021/12/15 03:46:13;;;;;;;73.07;39.97;;;9.40;99.90;;;;;;4944617;29;20155;-48
2021/12/15 03:48:43;;;;;;;79.93;41.70;;;9.40;99.90;;;;;;4945099;29;20055;-47
2021/12/15 03:51:10;;;;;;;79.10;39.15;;;9.40;99.90;;;;;;4927895;29;20164;-48
2021/12/15 03:53:36;;;;;;;83.13;40.17;;;9.40;99.90;;;;;;4944607;29;20051;-48
2021/12/15 03:56:02;;;;;;;82.88;41.13;;;9.40;99.90;;;;;;4926508;29;20165;-47
2021/12/15 03:58:28;;;;;;;82.28;41.13;;;9.40;99.90;;;;;;4944534;29;20082;-47
2021/12/15 04:01:07;;;;;;;86.05;42.03;;;9.40;99.90;;;;;;4945560;29;20680;-46
2021/12/15 04:03:36;;;;;;;82.10;41.70;;;9.40;99.90;;;;;;4944305;28;20054;-48
2021/12/15 04:06:06;;;;;;;89.05;41.40;;;9.40;99.90;;;;;;4943739;29;20449;-46
2021/12/15 04:08:34;;;;;;;84.72;41.83;;;9.40;99.90;;;;;;4944875;29;20058;-47
2021/12/15 04:11:02;;;;;;;85.45;40.05;;;9.40;99.90;;;;;;4945824;29;20071;-50
2021/12/15 04:13:28;;;;;;;79.72;41.22;;;9.40;99.90;;;;;;4944764;29;20513;-49
2021/12/15 04:15:57;;;;;;;92.38;43.88;;;9.40;99.90;;;;;;4943408;28;20464;-46
2021/12/15 04:18:24;;;;;;;81.72;41.22;;;9.40;99.90;;;;;;4932297;29;20126;-48
2021/12/15 04:20:52;;;;;;;84.93;42.63;;;9.40;99.90;;;;;;4928093;29;20062;-50
2021/12/15 04:23:20;;;;;;;79.93;41.38;;;9.40;99.90;;;;;;4928534;28;20055;-48
2021/12/15 04:25:49;;;;;;;80.32;42.80;;;9.30;99.90;;;;;;4946763;28;20083;-48
2021/12/15 04:28:19;;;;;;;88.32;43.95;;;9.40;99.90;;;;;;4943845;28;20055;-47
2021/12/15 04:30:48;;;;;;;85.82;43.55;;;9.40;99.90;;;;;;4945614;28;20097;-50
2021/12/15 04:33:20;;;;;;;89.20;44.15;;;9.40;99.90;;;;;;4945181;28;20054;-48
2021/12/15 04:35:46;;;;;;;100.65;45.40;;;9.40;99.90;;;;;;4930184;29;20062;-47
2021/12/15 04:38:13;;;;;;;98.10;46.17;;;9.30;99.90;;;;;;4942732;28;20139;-46
2021/12/15 04:40:41;;;;;;;96.88;45.38;;;9.30;99.90;;;;;;4944650;28;20414;-47
2021/12/15 04:43:07;;;;;;;97.22;45.80;;;9.40;99.90;;;;;;4926939;29;20059;-47
2021/12/15 04:45:33;;;;;;;95.10;45.45;;;9.30;99.90;;;;;;4943458;28;20058;-47
2021/12/15 04:47:59;;;;;;;96.45;43.70;;;9.40;99.90;;;;;;4926554;29;20134;-46
2021/12/15 04:50:28;;;;;;;89.90;43.28;;;9.30;99.90;;;;;;4927075;29;20059;-47
2021/12/15 04:52:54;;;;;;;99.18;45.47;;;9.30;99.90;;;;;;4926113;29;20055;-47
2021/12/15 04:55:21;;;;;;;94.28;45.38;;;9.30;99.90;;;;;;4943552;28;20055;-47
2021/12/15 04:57:48;;;;;;;94.47;44.33;;;9.30;99.90;;;;;;4944180;28;20102;-47
2021/12/15 05:00:21;;;;;;;93.65;46.03;;;9.30;99.90;;;;;;4926461;29;20212;-47
2021/12/15 05:02:52;;;;;;;93.22;45.22;;;9.30;99.90;;;;;;4943808;28;20511;-47
2021/12/15 05:05:21;;;;;;;92.63;44.13;;;9.30;99.90;;;;;;4925970;29;20142;-47
2021/12/15 05:07:49;;;;;;;92.95;45.70;;;9.30;99.90;;;;;;4926574;29;20247;-49
2021/12/15 05:10:16;;;;;;;98.53;42.53;;;9.30;99.90;;;;;;4942989;28;20497;-48
2021/12/15 05:12:42;;;;;;;94.38;45.30;;;9.40;99.90;;;;;;4925537;29;20161;-47
2021/12/15 05:15:09;;;;;;;97.78;44.08;;;9.30;99.90;;;;;;4943756;28;20055;-48
2021/12/15 05:17:35;;;;;;;83.40;41.72;;;9.30;99.90;;;;;;4920880;29;20056;-48
2021/12/15 05:20:04;;;;;;;93.45;42.88;;;9.40;99.90;;;;;;4943311;29;20054;-50
2021/12/15 05:22:31;;;;;;;84.40;42.20;;;9.30;99.90;;;;;;4944174;29;20422;-46
2021/12/15 05:24:57;;;;;;;82.20;40.30;;;9.40;99.90;;;;;;4924330;28;20062;-47
2021/12/15 05:27:23;;;;;;;81.93;42.03;;;9.40;99.90;;;;;;4943805;28;20055;-47
2021/12/15 05:29:50;;;;;;;80.63;40.80;;;9.40;99.90;;;;;;4943388;28;20047;-47
2021/12/15 05:32:18;;;;;;;90.18;43.65;;;9.40;99.90;;;;;;4923389;29;20136;-46
2021/12/15 05:34:49;;;;;;;70.57;39.40;;;9.40;99.90;;;;;;4947583;28;20063;-49
2021/12/15 05:37:16;;;;;;;80.68;40.58;;;9.40;99.90;;;;;;4944206;29;20054;-48
2021/12/15 05:39:43;;;;;;;79.85;40.13;;;9.40;99.90;;;;;;4927484;29;20059;-46
2021/12/15 05:42:09;;;;;;;74.32;37.92;;;9.40;99.90;;;;;;4945410;29;20043;-46
2021/12/15 05:44:36;;;;;;;81.53;41.10;;;9.40;99.90;;;;;;4926444;29;20073;-50
2021/12/15 05:47:05;;;;;;;82.30;41.10;;;9.40;99.90;;;;;;4926152;29;20055;-49
2021/12/15 05:49:31;;;;;;;84.07;41.10;;;9.30;99.90;;;;;;4925516;29;20146;-49
2021/12/15 05:51:57;;;;;;;87.25;42.30;;;9.40;99.90;;;;;;4925685;29;20055;-47
2021/12/15 05:54:24;;;;;;;80.45;40.28;;;9.30;99.90;;;;;;4943041;29;20036;-48
2021/12/15 05:56:50;;;;;;;86.70;42.22;;;9.40;99.90;;;;;;4943379;29;20059;-46
2021/12/15 05:59:17;;;;;;;80.53;41.30;;;9.30;99.90;;;;;;4943201;29;20047;-46
2021/12/15 06:01:44;;;;;;;82.72;41.35;;;9.30;99.90;;;;;;4943378;29;20082;-47
2021/12/15 06:04:10;;;;;;;75.28;41.13;;;9.30;99.90;;;;;;4941610;28;20059;-47
2021/12/15 06:06:36;;;;;;;84.22;41.25;;;9.30;99.90;;;;;;4924882;29;20051;-50
2021/12/15 06:09:04;;;;;;;78.22;41.67;;;9.30;99.90;;;;;;4924810;29;20053;-48
2021/12/15 06:11:33;;;;;;;81.45;40.90;;;9.30;99.90;;;;;;4943340;29;20077;-46
2021/12/15 06:13:59;;;;;;;85.50;42.40;;;9.30;99.90;;;;;;4934838;29;20074;-48
2021/12/15 06:16:25;;;;;;;81.68;42.08;;;9.30;99.90;;;;;;4925705;29;20529;-47
2021/12/15 06:18:52;;;;;;;81.05;42.67;;;9.30;99.90;;;;;;4942598;29;20417;-48
2021/12/15 06:21:19;;;;;;;88.43;43.72;;;9.30;99.90;;;;;;4909406;29;20498;-47
2021/12/15 06:23:47;;;;;;;85.45;43.15;;;9.30;99.90;;;;;;4942174;29;20446;-47
2021/12/15 06:26:14;;;;;;;78.43;41.70;;;9.20;99.90;;;;;;4927866;29;20063;-47
2021/12/15 06:28:40;;;;;;;83.15;41.45;;;9.30;99.90;;;;;;4942767;29;20055;-47
2021/12/15 06:31:10;;;;;;;89.53;42.97;;;9.30;99.90;;;;;;4925571;29;20059;-46
2021/12/15 06:33:40;;;;;;;73.15;40.17;;;9.30;99.90;;;;;;4926598;28;20194;-48
2021/12/15 06:36:08;;;;;;;78.38;40.08;;;9.30;99.90;;;;;;4943896;28;20055;-47
2021/12/15 06:38:45;;;;;;;72.47;37.83;;;9.30;99.90;;;;;;4926535;29;20093;-46
2021/12/15 06:41:12;;;;;;;73.35;38.30;;;9.30;99.90;;;;;;4945842;29;20063;-47
2021/12/15 06:43:42;;;;;;;73.88;37.97;;;9.30;99.90;;;;;;4928354;29;20057;-47
2021/12/15 06:59:38;;;;;;;70.40;36.38;;;9.30;99.90;;;;;;4939186;28;20059;-47
2021/12/15 07:02:05;;;;;;;67.88;34.33;;;9.30;99.90;;;;;;4945822;28;20413;-50
2021/12/15 07:04:30;;;;;;;73.85;34.75;;;9.30;99.90;;;;;;4945473;29;20549;-48
2021/12/15 07:06:59;;;;;;;68.13;34.10;;;9.30;99.90;;;;;;4928925;29;20130;-48
2021/12/15 07:09:27;;;;;;;70.45;32.33;;;9.30;99.90;;;;;;4930247;29;20419;-48
2021/12/15 07:11:59;;;;;;;67.03;33.67;;;9.30;99.90;;;;;;4928575;29;20059;-50
2021/12/15 07:14:27;;;;;;;65.07;31.23;;;9.30;99.90;;;;;;4929036;29;20053;-48
2021/12/15 07:16:55;;;;;;;63.40;32.08;;;9.30;99.90;;;;;;4914279;29;20059;-48
2021/12/15 07:19:43;;;;;;;61.70;29.08;;;9.30;99.90;;;;;;4946890;29;20498;-47
2021/12/15 07:22:14;;;;;;;62.22;31.02;;;9.20;99.90;;;;;;4926570;29;20059;-48
2021/12/15 07:24:40;;;;;;;64.28;31.40;;;9.20;99.90;;;;;;4926831;29;20055;-47
2021/12/15 07:27:07;;;;;;;61.33;30.33;;;9.30;99.90;;;;;;4944800;29;20500;-47
2021/12/15 07:29:35;;;;;;;60.30;30.75;;;9.30;99.90;;;;;;4946076;29;20051;-47
2021/12/15 07:32:03;;;;;;;63.30;29.98;;;9.30;99.90;;;;;;4922993;29;20057;-47
2021/12/15 07:34:29;;;;;;;55.88;28.67;;;9.30;99.90;;;;;;4943985;28;20446;-47
2021/12/15 07:36:54;;;;;;;61.10;30.85;;;9.30;99.90;;;;;;4924957;28;20051;-48
2021/12/15 07:39:20;;;;;;;61.33;29.67;;;9.30;99.90;;;;;;4920066;29;20406;-48
2021/12/15 07:42:02;;;;;;;68.32;31.80;;;9.30;99.90;;;;;;4934324;29;20054;-46
2021/12/15 07:44:28;;;;;;;67.20;29.25;;;9.30;99.90;;;;;;4935127;28;20570;-49
2021/12/15 07:46:54;;;;;;;66.35;30.98;;;9.30;99.90;;;;;;4926947;29;20053;-50
2021/12/15 07:49:22;;;;;;;65.35;30.63;;;9.30;99.90;;;;;;4945004;29;20058;-49
2021/12/15 07:51:50;;;;;;;62.85;30.23;;;9.30;99.90;;;;;;4944355;28;20145;-46
2021/12/15 07:54:16;;;;;;;61.88;29.65;;;9.30;99.90;;;;;;4943876;28;20055;-49
2021/12/15 07:56:42;;;;;;;56.58;29.52;;;9.30;99.90;;;;;;4944455;28;20055;-46
2021/12/15 07:59:08;;;;;;;59.35;30.30;;;9.30;99.90;;;;;;4926028;28;20047;-49
2021/12/15 08:01:34;;;;;;;63.88;29.17;;;9.30;99.90;;;;;;4944580;28;20054;-48
2021/12/15 08:04:00;;;;;;;62.40;29.98;;;9.30;99.90;;;;;;4927280;28;20047;-48
2021/12/15 08:06:27;;;;;;;63.80;30.15;;;9.30;99.90;;;;;;4926298;28;20075;-49
2021/12/15 08:08:54;;;;;;;66.25;30.20;;;9.30;99.90;;;;;;4929548;28;20074;-47
2021/12/15 08:11:20;;;;;;;64.38;31.20;;;9.40;99.90;;;;;;4947530;28;20051;-50
2021/12/15 08:13:46;;;;;;;61.88;30.05;;;9.30;99.90;;;;;;4940070;28;20121;-49
2021/12/15 08:16:14;;;;;;;62.70;32.20;;;9.30;99.90;;;;;;4934876;28;20047;-47
2021/12/15 08:18:40;;;;;;;60.38;30.20;;;9.30;99.90;;;;;;4934571;28;20055;-46
2021/12/15 08:21:07;;;;;;;56.63;29.95;;;9.30;99.90;;;;;;4935643;28;20055;-47
2021/12/15 08:23:33;;;;;;;64.30;30.65;;;9.30;99.90;;;;;;4938140;28;20047;-46
2021/12/15 08:25:59;;;;;;;65.43;31.60;;;9.30;99.90;;;;;;4939114;28;20063;-46
2021/12/15 08:28:26;;;;;;;58.47;32.35;;;9.30;99.90;;;;;;4938484;28;20532;-47
2021/12/15 08:30:52;;;;;;;65.28;31.67;;;9.30;99.90;;;;;;4921982;29;20047;-47
2021/12/15 08:33:21;;;;;;;56.22;30.50;;;9.30;99.90;;;;;;4922767;29;20054;-46
2021/12/15 08:35:56;;;;;;;63.13;30.42;;;9.30;99.90;;;;;;4947276;28;20070;-47
2021/12/15 08:38:22;;;;;;;68.07;32.45;;;9.30;99.90;;;;;;4933995;29;20059;-49
2021/12/15 08:40:51;;;;;;;56.75;30.45;;;9.30;99.90;;;;;;4943918;29;20390;-47
2021/12/15 08:43:17;;;;;;;69.32;32.83;;;9.40;99.90;;;;;;4934988;29;20422;-48
2021/12/15 08:45:59;;;;;;;54.95;28.88;;;9.40;99.90;;;;;;4925923;29;20561;-47
2021/12/15 08:48:25;;;;;;;60.22;30.88;;;9.30;99.90;;;;;;4927250;29;20055;-48
2021/12/15 08:50:51;;;;;;;63.88;31.05;;;9.30;99.90;;;;;;4925024;29;20059;-48
2021/12/15 08:53:17;;;;;;;65.00;30.00;;;9.20;99.90;;;;;;4944027;29;20051;-49
2021/12/15 08:55:46;;;;;;;58.42;30.20;;;9.20;99.90;;;;;;4942539;29;20466;-49
2021/12/15 08:58:17;;;;;;;59.72;27.98;;;9.20;99.90;;;;;;4944033;29;20213;-48
2021/12/15 09:00:46;;;;;;;55.95;28.73;;;9.20;99.90;;;;;;4944492;29;20430;-46
2021/12/15 09:03:13;;;;;;;58.40;29.67;;;9.10;99.90;;;;;;4942711;28;20126;-46
2021/12/15 09:05:41;;;;;;;64.68;30.85;;;9.20;99.90;;;;;;4933774;28;20066;-47
2021/12/15 09:08:08;;;;;;;58.15;29.48;;;9.10;99.90;;;;;;4935552;28;20075;-47
2021/12/15 09:10:36;;;;;;;54.80;28.70;;;9.20;99.90;;;;;;4935080;28;20486;-46
2021/12/15 09:13:03;;;;;;;57.63;31.67;;;9.20;99.90;;;;;;4918300;29;20392;-46
2021/12/15 09:15:29;;;;;;;56.17;29.45;;;9.30;99.90;;;;;;4929768;28;20134;-47
2021/12/15 09:17:56;;;;;;;65.78;31.05;;;9.20;99.90;;;;;;4911452;29;20121;-47
2021/12/15 09:20:26;;;;;;;58.28;29.80;;;9.30;99.90;;;;;;4931718;28;20465;-50
2021/12/15 09:22:52;;;;;;;64.90;31.33;;;9.30;99.90;;;;;;4935350;28;20066;-46
2021/12/15 09:25:18;;;;;;;56.85;31.15;;;9.30;99.90;;;;;;4935206;28;20181;-49
2021/12/15 09:27:46;;;;;;;62.25;31.88;;;9.40;99.90;;;;;;4923768;28;20077;-52
2021/12/15 09:30:18;;;;;;;60.72;30.40;;;9.50;99.90;;;;;;4938060;28;20050;-46
2021/12/15 09:32:44;;;;;;;62.77;32.53;;;9.50;99.90;;;;;;4915377;28;20147;-47
2021/12/15 09:35:13;;;;;;;59.50;30.33;;;9.50;99.90;;;;;;4935432;28;20142;-46
2021/12/15 09:37:39;;;;;;;55.67;30.33;;;9.50;99.90;;;;;;4923843;28;20101;-47
2021/12/15 09:40:08;;;;;;;61.13;32.05;;;9.40;99.90;;;;;;4933857;28;20050;-46
2021/12/15 09:42:37;;;;;;;58.08;29.70;;;9.50;99.90;;;;;;4934436;28;20082;-48
2021/12/15 10:04:20;;;;;;;43.33;25.63;;;9.70;99.90;;;;;;4933290;28;20083;-47
2021/12/15 10:12:23;;;;;;;44.33;27.20;;;9.90;99.90;;;;;;4920142;28;20059;-50
2021/12/15 10:17:50;;;;;;;41.40;24.25;;;10.00;99.90;;;;;;4931020;28;20055;-50
2021/12/15 10:20:20;;;;;;;45.03;22.60;;;10.00;99.90;;;;;;4916105;29;20062;-50
2021/12/15 10:22:50;;;;;;;38.92;21.95;;;10.00;99.90;;;;;;4935626;28;20102;-48
2021/12/15 10:25:27;;;;;;;36.15;22.83;;;10.00;99.90;;;;;;4935699;28;20113;-50
2021/12/15 10:27:59;;;;;;;32.47;21.75;;;10.00;99.90;;;;;;4933441;28;20051;-47
2021/12/15 10:30:26;;;;;;;39.45;20.70;;;10.00;99.90;;;;;;4912600;29;20095;-47
2021/12/15 10:33:05;;;;;;;32.28;19.05;;;10.00;99.90;;;;;;4943041;28;20461;-48
2021/12/15 10:35:33;;;;;;;28.67;16.75;;;10.00;99.90;;;;;;4935738;29;20055;-47
2021/12/15 10:38:24;;;;;;;32.72;17.15;;;10.00;99.90;;;;;;4947874;29;20162;-50
2021/12/15 10:40:55;;;;;;;30.67;15.68;;;10.00;99.90;;;;;;4949450;29;20098;-46
2021/12/15 10:43:26;;;;;;;27.33;15.25;;;10.00;99.90;;;;;;4938160;29;20410;-47
2021/12/15 10:45:55;;;;;;;24.10;13.82;;;10.00;99.90;;;;;;4922634;29;20498;-49
2021/12/15 10:48:46;;;;;;;25.05;13.10;;;10.10;99.90;;;;;;4940518;28;20189;-46
2021/12/15 10:51:32;;;;;;;23.23;13.32;;;10.00;99.90;;;;;;4942396;28;20082;-47
2021/12/15 10:54:05;;;;;;;26.63;13.48;;;10.10;99.90;;;;;;4943874;28;20545;-46
2021/12/15 10:56:35;;;;;;;27.48;13.52;;;10.10;99.90;;;;;;4940241;29;20054;-46
2021/12/15 10:59:11;;;;;;;27.80;13.82;;;10.10;99.90;;;;;;4942851;29;20050;-47
2021/12/15 11:01:57;;;;;;;21.95;12.70;;;10.10;99.90;;;;;;4936631;29;20092;-49
2021/12/15 11:04:30;;;;;;;20.15;12.70;;;10.00;99.90;;;;;;4920672;29;20534;-47
2021/12/15 11:07:29;;;;;;;23.75;12.38;;;10.10;99.90;;;;;;4943463;28;20134;-48
2021/12/15 11:10:00;;;;;;;26.05;12.70;;;10.00;99.90;;;;;;4925049;29;20161;-47
2021/12/15 11:12:45;;;;;;;24.50;13.18;;;10.00;99.90;;;;;;4941282;28;20169;-47
2021/12/15 11:15:19;;;;;;;27.38;13.00;;;10.10;99.90;;;;;;4937585;28;20506;-46
2021/12/15 11:17:56;;;;;;;22.27;12.52;;;10.10;99.90;;;;;;4935404;29;20071;-49
2021/12/15 11:20:29;;;;;;;24.20;13.40;;;10.10;99.90;;;;;;4928436;29;20055;-46
2021/12/15 11:22:54;;;;;;;;;;;10.10;99.90;;;;;;4943763;29;20562;-46
2021/12/15 11:25:35;;;;;;;25.48;11.60;;;10.20;99.90;;;;;;4927943;29;19926;-47
2021/12/15 11:28:08;;;;;;;23.65;12.65;;;10.20;99.90;;;;;;4944714;29;20051;-46
2021/12/15 11:30:45;;;;;;;24.05;12.10;;;10.20;99.90;;;;;;4946633;29;20533;-49
2021/12/15 11:33:21;;;;;;;21.50;13.48;;;10.20;99.90;;;;;;4925161;29;20059;-48
2021/12/15 11:36:09;;;;;;;25.38;13.05;;;10.30;99.90;;;;;;4950264;28;20059;-46
2021/12/15 11:38:48;;;;;;;28.92;13.77;;;10.30;99.90;;;;;;4938606;28;20461;-47
2021/12/15 11:41:16;;;;;;;27.42;12.30;;;10.30;99.90;;;;;;4942249;28;20039;-47
2021/12/15 11:43:51;;;;;;;26.83;13.23;;;10.30;99.90;;;;;;4928259;29;20827;-48
2021/12/15 11:46:33;;;;;;;29.70;14.35;;;10.30;99.90;;;;;;4928623;29;20471;-49
2021/12/15 11:49:13;;;;;;;28.73;13.67;;;10.30;99.90;;;;;;4928651;29;20488;-46
2021/12/15 11:51:49;;;;;;;27.65;12.68;;;10.30;99.90;;;;;;4945878;28;20047;-49
2021/12/15 11:54:18;;;;;;;27.58;13.05;;;10.30;99.90;;;;;;4926896;28;20608;-49
2021/12/15 11:56:57;;;;;;;25.75;11.77;;;10.30;99.90;;;;;;4947431;28;20106;-47
2021/12/15 11:59:44;;;;;;;20.05;11.52;;;10.30;99.90;;;;;;4945827;28;20058;-49
2021/12/15 12:02:27;;;;;;;20.83;11.30;;;10.30;99.90;;;;;;4941988;28;20048;-46
2021/12/15 12:05:08;;;;;;;22.27;11.35;;;10.30;99.90;;;;;;4932872;28;20054;-50
2021/12/15 12:07:42;;;;;;;20.80;10.00;;;10.30;99.90;;;;;;4915383;29;20111;-47
2021/12/15 12:10:32;;;;;;;25.40;9.60;;;10.30;99.90;;;;;;4930521;28;20509;-46
2021/12/15 12:13:27;;;;;;;19.67;9.60;;;10.30;99.90;;;;;;4937499;28;20078;-47
2021/12/15 12:16:02;;;;;;;12.45;6.32;;;10.40;99.90;;;;;;4862499;29;20069;-46
2021/12/15 12:18:31;;;;;;;16.02;6.95;;;10.40;99.90;;;;;;4865352;29;20144;-48
2021/12/15 12:21:01;;;;;;;15.38;7.72;;;10.40;99.90;;;;;;4865845;29;20072;-46
2021/12/15 12:23:31;;;;;;;13.82;6.18;;;10.30;99.90;;;;;;4864504;29;20055;-48
2021/12/15 12:26:05;;;;;;;18.45;6.95;;;10.30;99.90;;;;;;4868970;29;20049;-46
2021/12/15 12:28:36;;;;;;;14.07;5.93;;;10.30;99.90;;;;;;4866456;29;20416;-47
2021/12/15 12:31:07;;;;;;;9.48;5.00;;;10.20;99.90;;;;;;4867270;29;20045;-48
2021/12/15 12:33:34;;;;;;;11.35;5.25;;;10.20;99.90;;;;;;4865952;29;20064;-46
2021/12/15 12:36:03;;;;;;;10.52;4.93;;;10.30;99.90;;;;;;4848752;29;20068;-46
2021/12/15 12:38:31;;;;;;;12.40;5.65;;;10.30;99.90;;;;;;4862002;29;20089;-47
2021/12/15 12:41:03;;;;;;;12.20;5.05;;;10.30;99.90;;;;;;4864209;29;20177;-47
2021/12/15 12:43:36;;;;;;;12.02;5.68;;;10.30;99.90;;;;;;4868577;29;20049;-47
2021/12/15 12:46:21;;;;;;;15.02;5.40;;;10.30;99.90;;;;;;4869383;29;20069;-47
2021/12/15 13:00:22;;;;;;;11.90;5.53;;;10.20;99.90;;;;;;4880884;29;20204;-48
2021/12/15 13:02:51;;;;;;;19.15;5.88;;;10.20;99.90;;;;;;4885268;29;20529;-48
2021/12/15 13:05:31;;;;;;;11.38;5.45;;;10.20;99.90;;;;;;4885168;29;20117;-46
2021/12/15 13:08:04;;;;;;;12.25;4.90;;;10.20;99.90;;;;;;4885430;29;20140;-47
2021/12/15 13:10:48;;;;;;;12.60;4.53;;;10.20;99.90;;;;;;4871798;29;20469;-46
2021/12/15 13:13:36;;;;;;;12.95;6.13;;;10.20;99.90;;;;;;4884729;29;20048;-49
2021/12/15 13:16:07;;;;;;;11.65;5.65;;;10.10;99.90;;;;;;4860650;29;20052;-47
2021/12/15 13:18:55;;;;;;;10.75;5.03;;;10.10;99.90;;;;;;4883473;29;20056;-48
2021/12/15 13:22:17;;;;;;;9.60;4.53;;;10.10;99.90;;;;;;4883861;29;20070;-48
2021/12/15 13:30:40;;;;;;;13.98;4.93;;;10.10;99.90;;;;;;4880129;29;20088;-46
2021/12/15 13:33:13;;;;;;;9.20;4.70;;;10.10;99.90;;;;;;4882320;29;20059;-46
2021/12/15 13:35:44;;;;;;;11.20;4.75;;;10.00;99.90;;;;;;4887343;29;20160;-47
2021/12/15 13:38:11;;;;;;;10.35;4.90;;;10.10;99.90;;;;;;4936682;28;20055;-47
2021/12/15 13:40:53;;;;;;;8.20;4.80;;;10.00;99.90;;;;;;4943685;28;20402;-46
2021/12/15 13:43:35;;;;;;;16.25;5.55;;;10.00;99.90;;;;;;4941769;28;20058;-47
2021/12/15 13:46:04;;;;;;;12.67;5.17;;;10.00;99.90;;;;;;4943870;29;20588;-47
2021/12/15 13:48:57;;;;;;;14.32;5.50;;;10.00;99.90;;;;;;4941351;28;20047;-47
2021/12/15 13:52:01;;;;;;;8.47;5.10;;;9.90;99.90;;;;;;4946563;29;20070;-47
2021/12/15 13:54:33;;;;;;;13.80;5.80;;;9.90;99.90;;;;;;4946877;28;20047;-48
2021/12/15 13:57:33;;;;;;;14.32;5.90;;;9.90;99.90;;;;;;4947410;28;20055;-46
2021/12/15 14:00:22;;;;;;;12.85;5.70;;;9.80;99.90;;;;;;4869715;29;20061;-47
2021/12/15 14:03:07;;;;;;;10.52;5.35;;;9.80;99.90;;;;;;4846607;29;20128;-46
2021/12/15 14:05:42;;;;;;;10.15;5.35;;;9.80;99.90;;;;;;4851194;29;20411;-50
2021/12/15 14:08:14;;;;;;;10.52;5.28;;;9.80;99.90;;;;;;4865909;29;20084;-46
2021/12/15 14:10:54;;;;;;;10.25;4.60;;;9.70;99.90;;;;;;4867579;29;20452;-49
2021/12/15 14:13:22;;;;;;;9.95;5.07;;;9.70;99.90;;;;;;4853025;29;20072;-46
2021/12/15 14:15:49;;;;;;;8.43;4.05;;;9.70;99.90;;;;;;4868938;29;20152;-50
2021/12/15 14:18:28;;;;;;;9.18;4.00;;;9.70;99.90;;;;;;4865851;29;20065;-46
2021/12/15 14:20:56;;;;;;;6.03;3.60;;;9.70;99.90;;;;;;4873285;29;20112;-46
2021/12/15 14:23:39;;;;;;;7.57;3.75;;;9.70;99.90;;;;;;4852895;29;20065;-46